LTAJ

Gaziantep International Airport

Gaziantep, Turkey
METAR LTAJ 241120Z 35007G17KT 330V050 9999 SCT040 30/07 Q1011 NOSIG RMK RWY10 30008KT 260V360
Observed Flight Rules
May-24 @ 11:20 UTC (42 minutes ago) Visual Flight Rules
Wind Visibility Clouds
350° at 7 knots
 Gusting to 17 knots
10,000+ meters
  • Scattered at 4,000' AGL
Temperatures Readings
Current 30°C / 86°F
Dewpoint 7°C / 45°F
Humidity 24%
Altimeter 29.85" Hg
Pressure 1011 hPa
Elevation 855
METAR LTAJ 241120Z 35007G17KT 330V050 9999 SCT040 30/07 Q1011 NOSIG RMK RWY10 30008KT 260V360
Observed Flight Rules
May-24 @ 11:20 UTC
(42 minutes ago)
VFR
Wind Visibility
350° at 7 knots
 Gusting to 17 knots
10,000+ meters
Clouds
  • Scattered at 4,000' AGL
Temperature Dewpoint
30°C / 86°F 7°C / 45°F
Humidity Altimeter Pressure
24% 29.85" Hg 1011 hPa